createdAt,value
2023-02-15T03:59:10.119Z,17.89
2023-02-15T04:00:10.029Z,17.91
2023-02-15T04:01:10.217Z,17.92
2023-02-15T04:02:10.631Z,17.94
2023-02-15T04:03:10.477Z,17.95
2023-02-15T04:04:09.748Z,18.00
2023-02-15T04:05:11.295Z,18.04
2023-02-15T04:06:10.131Z,18.06
2023-02-15T04:07:31.939Z,18.09
2023-02-15T04:08:10.144Z,18.12
2023-02-15T04:09:11.158Z,18.15
2023-02-15T04:10:11.354Z,18.17
2023-02-15T04:11:10.566Z,18.17
2023-02-15T04:12:12.182Z,18.19
2023-02-15T04:13:12.171Z,18.21
2023-02-15T04:14:12.616Z,18.22
2023-02-15T04:15:12.665Z,18.24
2023-02-15T04:16:11.273Z,18.24
2023-02-15T04:17:12.652Z,18.25
2023-02-15T04:18:12.560Z,18.27
2023-02-15T04:19:12.766Z,18.27
2023-02-15T04:20:12.723Z,18.28
2023-02-15T04:21:12.564Z,18.29
2023-02-15T04:22:12.081Z,18.29
2023-02-15T04:23:12.689Z,18.29
2023-02-15T04:24:14.074Z,18.29
2023-02-15T04:25:13.743Z,18.29
2023-02-15T04:26:13.120Z,18.31
2023-02-15T04:27:14.122Z,18.31
2023-02-15T04:28:12.872Z,18.31
2023-02-15T04:29:13.902Z,18.31
2023-02-15T04:30:14.098Z,18.33
2023-02-15T04:31:14.843Z,18.33
2023-02-15T04:32:14.864Z,18.33
2023-02-15T04:33:13.467Z,18.33
2023-02-15T04:34:14.808Z,18.33
2023-02-15T04:35:14.609Z,18.33
2023-02-15T04:36:14.317Z,18.34
2023-02-15T04:37:14.938Z,18.33
2023-02-15T04:38:15.088Z,18.33
2023-02-15T04:39:14.727Z,18.33
2023-02-15T04:40:14.644Z,18.33
2023-02-15T04:41:16.576Z,18.34
2023-02-15T04:42:14.754Z,18.34
2023-02-15T04:43:15.168Z,18.36
2023-02-15T04:44:14.944Z,18.34
2023-02-15T04:45:16.508Z,18.34
2023-02-15T04:46:15.616Z,18.34
2023-02-15T04:47:16.365Z,18.34
2023-02-15T04:48:16.776Z,18.34
2023-02-15T04:49:16.723Z,18.36
2023-02-15T04:50:17.685Z,18.34
2023-02-15T04:51:16.964Z,18.36
2023-02-15T04:52:17.373Z,18.34
2023-02-15T04:53:16.354Z,18.36
2023-02-15T04:54:17.364Z,18.34
2023-02-15T04:55:17.943Z,18.34
2023-02-15T04:56:16.696Z,18.34
2023-02-15T04:57:17.820Z,18.36
2023-02-15T04:58:17.116Z,18.36
2023-02-15T04:59:18.141Z,18.36
2023-02-15T05:00:18.973Z,18.34
2023-02-15T05:01:17.873Z,18.34
2023-02-15T05:02:17.594Z,18.34
2023-02-15T05:03:19.607Z,18.36
2023-02-15T05:04:18.194Z,18.34
2023-02-15T05:05:18.981Z,18.34
2023-02-15T05:06:18.206Z,18.33
2023-02-15T05:07:19.231Z,18.34
2023-02-15T05:08:19.317Z,18.34
2023-02-15T05:09:19.483Z,18.36
2023-02-15T05:10:20.377Z,18.34
2023-02-15T05:11:18.756Z,18.34
2023-02-15T05:12:20.471Z,18.34
2023-02-15T05:13:20.480Z,18.36
2023-02-15T05:14:19.360Z,18.34
2023-02-15T05:15:19.270Z,18.34
2023-02-15T05:16:20.607Z,18.33
2023-02-15T05:17:20.529Z,18.34
2023-02-15T05:18:19.901Z,18.34
2023-02-15T05:19:19.900Z,18.34
2023-02-15T05:20:20.840Z,18.34
2023-02-15T05:21:20.615Z,18.34
2023-02-15T05:22:20.437Z,18.33
2023-02-15T05:23:20.440Z,18.33
2023-02-15T05:24:20.460Z,18.34
2023-02-15T05:25:20.762Z,18.34
2023-02-15T05:26:20.873Z,18.33
2023-02-15T05:27:20.878Z,18.34
2023-02-15T05:30:40.960Z,18.33
2023-02-15T05:31:38.609Z,18.31
2023-02-15T05:32:39.187Z,18.31
2023-02-15T05:33:38.123Z,18.31
2023-02-15T05:34:39.021Z,18.33
2023-02-15T05:35:38.359Z,18.33
2023-02-15T05:36:38.353Z,18.33
2023-02-15T05:37:39.746Z,18.33
2023-02-15T05:38:39.797Z,18.33
2023-02-15T05:39:39.804Z,18.31
2023-02-15T05:40:39.690Z,18.34
2023-02-15T05:41:39.909Z,18.31
2023-02-15T05:42:40.320Z,18.33
2023-02-15T05:43:40.443Z,18.33
2023-02-15T05:44:40.227Z,18.33
2023-02-15T05:45:40.587Z,18.33
2023-02-15T05:46:40.489Z,18.34
2023-02-15T05:47:41.137Z,18.33
2023-02-15T05:48:40.731Z,18.33
2023-02-15T05:49:40.907Z,18.33
2023-02-15T05:50:40.998Z,18.33
2023-02-15T05:51:41.136Z,18.31
2023-02-15T05:52:41.264Z,18.33
2023-02-15T05:53:42.347Z,18.31
2023-02-15T05:54:40.619Z,18.33
2023-02-15T05:55:40.924Z,18.31
2023-02-15T05:56:41.815Z,18.31
2023-02-15T05:57:40.954Z,18.31
2023-02-15T05:58:41.153Z,18.31
2023-02-15T05:59:41.484Z,18.31
2023-02-15T06:00:41.380Z,18.31
2023-02-15T06:01:42.412Z,18.29
2023-02-15T06:02:41.678Z,18.29
2023-02-15T06:03:41.868Z,18.29
2023-02-15T06:04:43.199Z,18.31
2023-02-15T06:05:42.013Z,18.28
2023-02-15T06:06:42.372Z,18.29
2023-02-15T06:07:42.256Z,18.31
2023-02-15T06:08:43.405Z,18.29
2023-02-15T06:09:43.815Z,18.29
2023-02-15T06:10:42.721Z,18.31
2023-02-15T06:11:43.884Z,18.28
2023-02-15T06:12:44.116Z,18.28
2023-02-15T06:13:43.409Z,18.29
2023-02-15T06:14:44.271Z,18.29
2023-02-15T06:15:44.813Z,18.29
2023-02-15T06:16:44.866Z,18.28
2023-02-15T06:17:43.705Z,18.27
2023-02-15T06:18:44.082Z,18.29
2023-02-15T06:19:44.771Z,18.29
2023-02-15T06:20:44.889Z,18.27
2023-02-15T06:21:45.010Z,18.28
2023-02-15T06:22:44.499Z,18.28
2023-02-15T06:23:44.619Z,18.28
2023-02-15T06:24:44.807Z,18.27
2023-02-15T06:25:44.820Z,18.29
2023-02-15T06:26:44.847Z,18.27
2023-02-15T06:27:44.869Z,18.28
2023-02-15T06:28:45.069Z,18.28
2023-02-15T06:29:45.267Z,18.27
2023-02-15T06:30:45.563Z,18.28
2023-02-15T06:31:45.967Z,18.27
2023-02-15T06:32:46.579Z,18.27
2023-02-15T06:33:46.111Z,18.27
2023-02-15T06:34:48.014Z,18.25
2023-02-15T06:35:47.031Z,18.27
2023-02-15T06:36:46.330Z,18.27
2023-02-15T06:37:46.273Z,18.27
2023-02-15T06:38:46.939Z,18.27
2023-02-15T06:39:46.676Z,18.27
2023-02-15T06:40:46.893Z,18.27
2023-02-15T06:41:47.284Z,18.25
2023-02-15T06:42:48.037Z,18.27
2023-02-15T06:43:47.280Z,18.27
2023-02-15T06:44:47.744Z,18.27
2023-02-15T06:45:47.425Z,18.25
2023-02-15T06:46:47.805Z,18.25
2023-02-15T06:47:48.022Z,18.25
2023-02-15T06:48:48.442Z,18.27
2023-02-15T06:49:48.460Z,18.25
2023-02-15T06:53:04.868Z,18.24
2023-02-15T06:54:04.679Z,18.24
2023-02-15T06:55:04.618Z,18.27
2023-02-15T06:56:04.998Z,18.25
2023-02-15T06:57:05.019Z,18.27
2023-02-15T06:58:05.287Z,18.25
2023-02-15T06:59:05.316Z,18.25
2023-02-15T07:00:05.623Z,18.24
2023-02-15T07:01:05.467Z,18.27
2023-02-15T07:02:05.962Z,18.27
2023-02-15T07:03:05.786Z,18.27
2023-02-15T07:04:05.879Z,18.25
2023-02-15T07:05:06.080Z,18.25
2023-02-15T07:06:06.138Z,18.25
2023-02-15T07:07:06.241Z,18.24
2023-02-15T07:08:06.409Z,18.25
2023-02-15T07:09:06.428Z,18.24
2023-02-15T07:10:10.590Z,18.24
2023-02-15T07:11:27.750Z,18.24
2023-02-15T07:12:07.550Z,18.24
2023-02-15T07:13:07.047Z,18.24
2023-02-15T07:14:10.979Z,18.22
2023-02-15T07:15:07.412Z,18.22
2023-02-15T07:16:08.462Z,18.22
2023-02-15T07:17:27.490Z,18.24
2023-02-15T07:18:09.650Z,18.24
2023-02-15T07:19:07.817Z,18.24
2023-02-15T07:20:08.032Z,18.24
2023-02-15T07:21:09.049Z,18.24
2023-02-15T07:22:09.744Z,18.24
2023-02-15T07:23:08.425Z,18.24
2023-02-15T07:24:09.440Z,18.24
2023-02-15T07:25:09.053Z,18.24
2023-02-15T07:26:09.466Z,18.24
2023-02-15T07:27:12.235Z,18.25
2023-02-15T07:28:09.265Z,18.22
2023-02-15T07:29:09.514Z,18.24
2023-02-15T07:30:09.215Z,18.25
2023-02-15T07:31:09.515Z,18.25
2023-02-15T07:32:09.510Z,18.22
2023-02-15T07:33:10.613Z,18.24
2023-02-15T07:34:10.728Z,18.22
2023-02-15T07:35:10.261Z,18.24
2023-02-15T07:36:10.077Z,18.24
2023-02-15T07:37:11.098Z,18.22
2023-02-15T07:38:10.263Z,18.22
2023-02-15T07:39:10.687Z,18.21
2023-02-15T07:40:10.683Z,18.22
2023-02-15T07:41:10.936Z,18.22
2023-02-15T07:42:11.002Z,18.22
2023-02-15T07:43:10.965Z,18.22
2023-02-15T07:44:11.275Z,18.21
2023-02-15T07:45:11.734Z,18.21
2023-02-15T07:46:11.623Z,18.22
2023-02-15T07:47:11.607Z,18.22
2023-02-15T07:48:11.845Z,18.21
2023-02-15T07:49:11.856Z,18.22
2023-02-15T07:50:12.896Z,18.22
2023-02-15T07:51:14.172Z,18.24
2023-02-15T07:52:12.276Z,18.22
2023-02-15T07:53:13.649Z,18.22
2023-02-15T07:54:12.791Z,18.22
2023-02-15T07:55:12.980Z,18.22
2023-02-15T07:56:13.075Z,18.22
2023-02-15T07:57:13.275Z,18.24
2023-02-15T07:58:13.151Z,18.25
2023-02-15T07:59:13.663Z,18.24
2023-02-15T08:00:13.595Z,18.24
2023-02-15T08:01:13.527Z,18.24
2023-02-15T08:02:13.621Z,18.27
2023-02-15T08:03:13.958Z,18.27
2023-02-15T08:04:13.953Z,18.27
2023-02-15T08:05:14.965Z,18.28
2023-02-15T08:06:15.040Z,18.28
2023-02-15T08:07:14.762Z,18.29
2023-02-15T08:08:14.350Z,18.29
2023-02-15T08:09:14.584Z,18.31
2023-02-15T08:10:14.677Z,18.33
2023-02-15T08:11:14.909Z,18.33
2023-02-15T08:12:14.890Z,18.33
2023-02-15T08:13:15.135Z,18.34
2023-02-15T08:16:31.795Z,18.34
2023-02-15T08:17:31.525Z,18.37
2023-02-15T08:18:31.647Z,18.36
2023-02-15T08:19:32.224Z,18.36
2023-02-15T08:20:31.886Z,18.37
2023-02-15T08:21:31.987Z,18.36
2023-02-15T08:22:33.088Z,18.37
2023-02-15T08:23:33.195Z,18.40
2023-02-15T08:24:32.390Z,18.40
2023-02-15T08:25:33.327Z,18.40
2023-02-15T08:26:33.064Z,18.42
2023-02-15T08:27:33.020Z,18.43
2023-02-15T08:28:33.045Z,18.44
2023-02-15T08:29:33.485Z,18.43
2023-02-15T08:30:36.166Z,18.44
2023-02-15T08:31:33.589Z,18.44
2023-02-15T08:32:34.592Z,18.44
2023-02-15T08:33:33.825Z,18.46
2023-02-15T08:34:34.135Z,18.44
2023-02-15T08:35:34.385Z,18.46
2023-02-15T08:36:34.233Z,18.47
2023-02-15T08:37:34.235Z,18.49
2023-02-15T08:38:34.423Z,18.49
2023-02-15T08:39:34.813Z,18.52
2023-02-15T08:40:34.858Z,18.54
2023-02-15T08:41:34.894Z,18.54
2023-02-15T08:42:35.565Z,18.54
2023-02-15T08:43:35.312Z,18.52
2023-02-15T08:44:35.376Z,18.52
2023-02-15T08:45:35.687Z,18.52
2023-02-15T08:46:35.831Z,18.57
2023-02-15T08:47:35.970Z,18.57
2023-02-15T08:48:35.965Z,18.59
2023-02-15T08:49:36.902Z,18.61
2023-02-15T08:50:36.303Z,18.59
2023-02-15T08:51:36.368Z,18.61
2023-02-15T08:52:36.613Z,18.62
2023-02-15T08:53:36.573Z,18.64
2023-02-15T08:54:36.776Z,18.62
2023-02-15T08:55:37.184Z,18.65
2023-02-15T08:56:37.042Z,18.67
2023-02-15T08:57:37.096Z,18.67
2023-02-15T08:58:37.268Z,18.67
2023-02-15T08:59:37.644Z,18.68
2023-02-15T09:00:37.509Z,18.72
2023-02-15T09:01:37.729Z,18.70
2023-02-15T09:02:37.801Z,18.72
2023-02-15T09:03:37.673Z,18.73
2023-02-15T09:04:37.865Z,18.74
2023-02-15T09:05:37.984Z,18.74
2023-02-15T09:06:38.505Z,18.76
2023-02-15T09:07:38.420Z,18.77
2023-02-15T09:08:38.342Z,18.77
2023-02-15T09:09:38.624Z,18.77
2023-02-15T09:10:38.731Z,18.80
2023-02-15T09:11:39.147Z,18.79
2023-02-15T09:12:39.040Z,18.83
2023-02-15T09:13:39.970Z,18.83
2023-02-15T09:14:39.582Z,18.83
2023-02-15T09:15:39.369Z,18.83
2023-02-15T09:16:39.545Z,18.84
2023-02-15T09:17:39.605Z,18.84
2023-02-15T09:18:39.743Z,18.87
2023-02-15T09:19:39.972Z,18.87
2023-02-15T09:20:40.058Z,18.90
2023-02-15T09:21:40.227Z,18.90
2023-02-15T09:22:40.419Z,18.91
2023-02-15T09:23:41.376Z,18.91
2023-02-15T09:24:40.676Z,18.94
2023-02-15T09:25:40.816Z,18.94
2023-02-15T09:26:41.261Z,18.95
2023-02-15T09:27:41.186Z,18.91
2023-02-15T09:28:42.422Z,18.97
2023-02-15T09:29:41.234Z,18.97
2023-02-15T09:30:41.488Z,18.97
2023-02-15T09:31:41.590Z,18.99
2023-02-15T09:32:41.791Z,19.01
2023-02-15T09:33:41.949Z,18.99
2023-02-15T09:34:42.821Z,19.01
2023-02-15T09:39:12.940Z,19.05
2023-02-15T09:40:14.264Z,19.05
2023-02-15T09:41:13.253Z,19.06
2023-02-15T09:42:14.179Z,19.08
2023-02-15T09:43:17.419Z,19.06
2023-02-15T09:44:13.466Z,19.10
2023-02-15T09:45:13.691Z,19.08
2023-02-15T09:46:14.216Z,19.11
2023-02-15T09:47:14.719Z,19.13
2023-02-15T09:48:14.212Z,19.15
2023-02-15T09:49:14.507Z,19.15
2023-02-15T09:50:14.206Z,19.15
2023-02-15T09:51:14.425Z,19.18
2023-02-15T09:52:15.365Z,19.17
2023-02-15T09:53:14.837Z,19.20
2023-02-15T09:54:14.771Z,19.20
2023-02-15T09:55:15.073Z,19.21
2023-02-15T09:56:21.119Z,19.23
2023-02-15T09:57:15.353Z,19.24
2023-02-15T09:58:15.828Z,19.25
2023-02-15T09:59:15.934Z,19.25
2023-02-15T10:00:15.895Z,19.28
2023-02-15T10:01:16.084Z,19.28
2023-02-15T10:02:15.838Z,19.28
2023-02-15T10:13:27.016Z,19.18
2023-02-15T10:14:27.924Z,19.15
2023-02-15T10:15:27.402Z,19.15
2023-02-15T10:16:28.140Z,19.18
2023-02-15T10:17:28.205Z,19.20
2023-02-15T10:18:27.725Z,19.21
2023-02-15T10:19:28.758Z,19.24
2023-02-15T10:20:29.359Z,19.28
2023-02-15T10:21:28.507Z,19.31
2023-02-15T10:22:29.285Z,19.33
2023-02-15T10:23:28.484Z,19.36
2023-02-15T10:24:28.430Z,19.38
2023-02-15T10:25:28.602Z,19.40
2023-02-15T10:26:29.172Z,19.40
2023-02-15T10:27:30.103Z,19.43
2023-02-15T10:28:29.044Z,19.46
2023-02-15T10:29:29.206Z,19.48
2023-02-15T10:30:32.185Z,19.50
2023-02-15T10:31:50.674Z,19.50
2023-02-15T10:32:29.580Z,19.51
2023-02-15T10:33:29.616Z,19.53
2023-02-15T10:34:30.378Z,19.54
2023-02-15T10:35:29.888Z,19.55
2023-02-15T10:36:30.273Z,19.55
2023-02-15T10:37:30.678Z,19.60
2023-02-15T10:38:30.232Z,19.58
2023-02-15T10:39:30.628Z,19.60
2023-02-15T10:40:30.502Z,19.60
2023-02-15T10:41:30.767Z,19.61
2023-02-15T10:42:32.038Z,19.63
2023-02-15T10:43:30.988Z,19.61
2023-02-15T10:44:31.377Z,19.65
2023-02-15T10:45:31.359Z,19.68
2023-02-15T10:46:32.026Z,19.68
2023-02-15T10:47:32.475Z,19.69
2023-02-15T10:48:31.721Z,19.68
2023-02-15T10:49:31.820Z,19.69
2023-02-15T10:50:31.811Z,19.69
2023-02-15T10:51:32.136Z,19.70
2023-02-15T10:52:32.070Z,19.69
2023-02-15T10:53:33.389Z,19.70
2023-02-15T10:54:32.557Z,19.72
2023-02-15T10:55:32.679Z,19.72
2023-02-15T10:56:32.610Z,19.72
2023-02-15T10:57:36.451Z,19.72
2023-02-15T10:58:32.877Z,19.73
2023-02-15T10:59:37.138Z,19.72
2023-02-15T11:00:33.481Z,19.72
2023-02-15T11:01:33.342Z,19.73
2023-02-15T11:02:33.818Z,19.73
2023-02-15T11:03:36.204Z,19.75
2023-02-15T11:04:33.804Z,19.75
2023-02-15T11:05:34.052Z,19.73
2023-02-15T11:06:33.895Z,19.73
2023-02-15T11:07:34.370Z,19.75
2023-02-15T11:08:34.389Z,19.75
2023-02-15T11:09:35.244Z,19.75
2023-02-15T11:10:34.549Z,19.76
2023-02-15T11:11:35.527Z,19.75
2023-02-15T11:12:35.155Z,19.76
2023-02-15T11:13:35.793Z,19.78
2023-02-15T11:14:35.331Z,19.78
2023-02-15T11:15:35.460Z,19.78
2023-02-15T11:16:35.395Z,19.79
2023-02-15T11:17:35.576Z,19.80
2023-02-15T11:18:35.777Z,19.79
2023-02-15T11:19:36.103Z,19.79
2023-02-15T11:20:35.914Z,19.80
2023-02-15T11:21:37.573Z,19.80
2023-02-15T11:22:36.949Z,19.83
2023-02-15T11:23:37.220Z,19.84
2023-02-15T11:24:36.441Z,19.83
2023-02-15T11:25:37.432Z,19.83
2023-02-15T11:26:37.115Z,19.83
2023-02-15T11:27:36.807Z,19.83
2023-02-15T11:28:37.812Z,19.84
2023-02-15T11:29:37.077Z,19.86
2023-02-15T11:30:38.137Z,19.86
2023-02-15T11:31:37.631Z,19.87
2023-02-15T11:32:37.843Z,19.87
2023-02-15T11:34:52.861Z,19.86
2023-02-15T11:35:52.999Z,19.87
2023-02-15T11:36:53.436Z,19.88
2023-02-15T11:37:53.247Z,19.88
2023-02-15T11:38:53.220Z,19.90
2023-02-15T11:39:53.436Z,19.88
2023-02-15T11:40:53.535Z,19.90
2023-02-15T11:41:53.771Z,19.90
2023-02-15T11:42:53.939Z,19.91
2023-02-15T11:43:54.105Z,19.90
2023-02-15T11:44:55.046Z,19.91
2023-02-15T11:45:54.260Z,19.91
2023-02-15T11:46:54.575Z,19.93
2023-02-15T11:47:54.542Z,19.94
2023-02-15T11:48:55.053Z,19.97
2023-02-15T11:49:54.829Z,19.97
2023-02-15T11:50:56.053Z,20.00
2023-02-15T11:51:55.305Z,19.98
2023-02-15T11:52:55.574Z,20.00
2023-02-15T11:53:55.794Z,20.02
2023-02-15T11:54:55.594Z,20.02
2023-02-15T11:55:55.707Z,20.03
2023-02-15T11:56:56.008Z,20.03
2023-02-15T11:57:56.173Z,20.05
2023-02-15T11:58:56.048Z,20.05
2023-02-15T11:59:56.214Z,20.08
2023-02-15T12:00:57.456Z,20.08
2023-02-15T12:01:56.765Z,20.09
2023-02-15T12:02:56.855Z,20.10
2023-02-15T12:03:57.038Z,20.12
2023-02-15T12:04:57.195Z,20.12
2023-02-15T12:05:57.015Z,20.10
2023-02-15T12:07:02.342Z,20.12
2023-02-15T12:07:58.396Z,20.13
2023-02-15T12:08:58.298Z,20.13
2023-02-15T12:09:58.428Z,20.15
2023-02-15T12:10:57.675Z,20.15
2023-02-15T12:11:58.087Z,20.16
2023-02-15T12:12:58.066Z,20.15
2023-02-15T12:13:58.102Z,20.18
2023-02-15T12:14:58.375Z,20.18
2023-02-15T12:15:59.242Z,20.18
2023-02-15T12:16:58.720Z,20.20
2023-02-15T12:17:58.924Z,20.21
2023-02-15T12:19:01.542Z,20.23
2023-02-15T12:19:58.869Z,20.23
2023-02-15T12:20:59.058Z,20.25
2023-02-15T12:21:59.576Z,20.25
2023-02-15T12:22:59.517Z,20.25
2023-02-15T12:23:59.489Z,20.25
2023-02-15T12:24:59.685Z,20.28
2023-02-15T12:25:59.872Z,20.27
2023-02-15T12:27:00.079Z,20.28
2023-02-15T12:28:00.137Z,20.31
2023-02-15T12:29:00.121Z,20.31
2023-02-15T12:30:00.286Z,20.33
2023-02-15T12:31:00.804Z,20.34
2023-02-15T12:32:00.715Z,20.35
2023-02-15T12:33:00.866Z,20.38
2023-02-15T12:34:01.041Z,20.35
2023-02-15T12:35:01.775Z,20.35
2023-02-15T12:36:01.373Z,20.35
2023-02-15T12:37:01.091Z,20.38
2023-02-15T12:38:01.767Z,20.35
2023-02-15T12:39:01.491Z,20.38
2023-02-15T12:40:01.655Z,20.39
2023-02-15T12:41:02.422Z,20.41
2023-02-15T12:42:02.145Z,20.41
2023-02-15T12:43:02.021Z,20.41
2023-02-15T12:44:02.243Z,20.41
2023-02-15T12:45:02.284Z,20.42
2023-02-15T12:46:02.941Z,20.42
2023-02-15T12:47:03.483Z,20.42
2023-02-15T12:48:02.972Z,20.42
2023-02-15T12:49:02.870Z,20.43
2023-02-15T12:50:02.905Z,20.46
2023-02-15T12:51:03.199Z,20.46
2023-02-15T12:52:03.615Z,20.47
2023-02-15T12:53:03.514Z,20.47
2023-02-15T12:54:03.556Z,20.46
2023-02-15T12:55:45.485Z,20.47
2023-02-15T12:57:19.959Z,20.49
2023-02-15T12:58:22.169Z,20.50
2023-02-15T12:59:23.294Z,20.50
2023-02-15T13:00:20.397Z,20.50
2023-02-15T13:01:20.344Z,20.51
2023-02-15T13:02:20.906Z,20.50
2023-02-15T13:03:21.408Z,20.53
2023-02-15T13:04:21.946Z,20.53
2023-02-15T13:05:21.027Z,20.53
2023-02-15T13:06:20.912Z,20.53
2023-02-15T13:07:21.239Z,20.53
2023-02-15T13:08:21.339Z,20.53
2023-02-15T13:09:21.339Z,20.54
2023-02-15T13:10:21.772Z,20.58
2023-02-15T13:11:21.602Z,20.56
2023-02-15T13:12:23.510Z,20.58
2023-02-15T13:13:22.088Z,20.58
2023-02-15T13:14:22.459Z,20.58
2023-02-15T13:15:22.219Z,20.59
2023-02-15T13:16:22.966Z,20.61
2023-02-15T13:17:22.438Z,20.61
2023-02-15T13:18:22.744Z,20.61
2023-02-15T13:19:22.743Z,20.62
2023-02-15T13:20:23.937Z,20.62
2023-02-15T13:21:23.184Z,20.64
2023-02-15T13:22:23.284Z,20.65
2023-02-15T13:23:24.200Z,20.65
2023-02-15T13:24:23.780Z,20.65
2023-02-15T13:25:24.470Z,20.66
2023-02-15T13:26:23.730Z,20.66
2023-02-15T13:27:24.210Z,20.65
2023-02-15T13:28:24.182Z,20.68
2023-02-15T13:29:25.060Z,20.66
2023-02-15T13:30:24.576Z,20.68
2023-02-15T13:31:24.684Z,20.68
2023-02-15T13:32:24.711Z,20.68
2023-02-15T13:33:24.986Z,20.69
2023-02-15T13:34:25.222Z,20.69
2023-02-15T13:35:25.429Z,20.69
2023-02-15T13:36:25.318Z,20.69
2023-02-15T13:37:25.630Z,20.71
2023-02-15T13:38:26.350Z,20.72
2023-02-15T13:39:26.460Z,20.72
2023-02-15T13:40:25.543Z,20.72
2023-02-15T13:41:25.788Z,20.74
2023-02-15T13:42:26.068Z,20.74
2023-02-15T13:43:26.940Z,20.74
2023-02-15T13:44:26.334Z,20.77
2023-02-15T13:45:26.251Z,20.76
2023-02-15T13:46:26.828Z,20.77
2023-02-15T13:47:27.438Z,20.77
2023-02-15T13:48:36.970Z,20.77
2023-02-15T13:49:27.803Z,20.79
2023-02-15T13:50:27.146Z,20.80
2023-02-15T13:51:27.966Z,20.79
2023-02-15T13:52:27.252Z,20.79
2023-02-15T13:53:28.983Z,20.79
2023-02-15T13:54:28.841Z,20.81
2023-02-15T13:55:27.509Z,20.81
2023-02-15T13:56:27.928Z,20.81
2023-02-15T13:57:28.957Z,20.80
2023-02-15T13:58:28.148Z,20.80
2023-02-15T13:59:29.243Z,20.80
2023-02-15T14:00:29.214Z,20.80
2023-02-15T14:01:29.409Z,20.80
2023-02-15T14:02:29.479Z,20.81
2023-02-15T14:03:29.206Z,20.79
2023-02-15T14:04:29.649Z,20.80
2023-02-15T14:05:29.111Z,20.81
2023-02-15T14:06:29.350Z,20.81
2023-02-15T14:07:29.638Z,20.81
2023-02-15T14:08:30.227Z,20.81
2023-02-15T14:09:30.857Z,20.80
2023-02-15T14:10:29.565Z,20.79
2023-02-15T14:11:29.848Z,20.80
2023-02-15T14:12:30.179Z,20.80
2023-02-15T14:13:30.268Z,20.79
2023-02-15T14:14:30.582Z,20.77
2023-02-15T14:15:30.435Z,20.77
2023-02-15T14:16:30.667Z,20.76
2023-02-15T14:19:46.850Z,20.76
2023-02-15T14:20:47.025Z,20.74
2023-02-15T14:21:48.113Z,20.72
2023-02-15T14:22:47.953Z,20.72
2023-02-15T14:23:47.324Z,20.72
2023-02-15T14:24:47.303Z,20.74
2023-02-15T14:25:47.675Z,20.72
2023-02-15T14:26:48.048Z,20.69
2023-02-15T14:27:47.764Z,20.71
2023-02-15T14:28:47.965Z,20.69
2023-02-15T14:29:48.222Z,20.71
2023-02-15T14:30:48.529Z,20.71
2023-02-15T14:31:49.346Z,20.69
2023-02-15T14:32:48.609Z,20.69
2023-02-15T14:33:48.609Z,20.68
2023-02-15T14:34:49.199Z,20.68
2023-02-15T14:35:48.932Z,20.68
2023-02-15T14:36:49.237Z,20.68
2023-02-15T14:37:49.184Z,20.66
2023-02-15T14:38:49.360Z,20.68
2023-02-15T14:40:11.697Z,20.65
2023-02-15T14:40:49.489Z,20.66
2023-02-15T14:41:49.620Z,20.66
2023-02-15T14:42:50.642Z,20.64
2023-02-15T14:43:50.763Z,20.65
2023-02-15T14:44:50.879Z,20.65
2023-02-15T14:45:50.581Z,20.62
2023-02-15T14:46:57.703Z,20.62
2023-02-15T14:47:50.681Z,20.62
2023-02-15T14:48:50.651Z,20.61
2023-02-15T14:49:50.780Z,20.62
2023-02-15T14:50:51.185Z,20.61
2023-02-15T14:51:51.872Z,20.62
2023-02-15T14:52:51.957Z,20.61
2023-02-15T14:53:52.366Z,20.61
2023-02-15T14:54:52.235Z,20.59
2023-02-15T14:55:51.434Z,20.59
2023-02-15T14:56:51.743Z,20.58
2023-02-15T14:57:52.615Z,20.56
2023-02-15T14:58:52.798Z,20.56
2023-02-15T14:59:52.064Z,20.54
2023-02-15T15:00:52.512Z,20.56
2023-02-15T15:01:53.333Z,20.54
2023-02-15T15:02:52.818Z,20.53
2023-02-15T15:03:53.430Z,20.54
2023-02-15T15:04:52.664Z,20.53
2023-02-15T15:05:52.822Z,20.53
2023-02-15T15:06:53.342Z,20.53
2023-02-15T15:07:54.001Z,20.51
2023-02-15T15:08:53.243Z,20.53
2023-02-15T15:09:53.611Z,20.53
2023-02-15T15:10:53.614Z,20.50
2023-02-15T15:11:54.514Z,20.50
2023-02-15T15:12:54.112Z,20.49
2023-02-15T15:13:53.943Z,20.51
2023-02-15T15:14:54.517Z,20.49
2023-02-15T15:15:54.482Z,20.49
2023-02-15T15:16:54.446Z,20.47
2023-02-15T15:17:54.534Z,20.47
2023-02-15T15:18:54.765Z,20.46
2023-02-15T15:19:55.966Z,20.47
2023-02-15T15:20:55.780Z,20.43
2023-02-15T15:21:56.148Z,20.43
2023-02-15T15:22:55.949Z,20.46
2023-02-15T15:23:56.770Z,20.42
2023-02-15T15:24:57.222Z,20.42
2023-02-15T15:25:57.168Z,20.42
2023-02-15T15:26:57.093Z,20.41
2023-02-15T15:27:55.836Z,20.41
2023-02-15T15:28:56.468Z,20.41
2023-02-15T15:29:56.581Z,20.41
2023-02-15T15:30:57.592Z,20.41
2023-02-15T15:31:57.468Z,20.39
2023-02-15T15:32:56.890Z,20.39
2023-02-15T15:33:56.619Z,20.35
2023-02-15T15:34:57.206Z,20.35
2023-02-15T15:35:57.814Z,20.35
2023-02-15T15:36:58.542Z,20.34
2023-02-15T15:37:58.137Z,20.33
2023-02-15T15:38:58.593Z,20.34
2023-02-15T15:39:57.752Z,20.31
2023-02-15T15:43:14.954Z,20.28
2023-02-15T15:44:14.263Z,20.30
2023-02-15T15:45:14.902Z,20.30
2023-02-15T15:46:15.072Z,20.30
2023-02-15T15:47:15.177Z,20.27
2023-02-15T15:48:15.302Z,20.28
2023-02-15T15:49:15.424Z,20.28
2023-02-15T15:50:15.542Z,20.25
2023-02-15T15:51:15.142Z,20.27
2023-02-15T15:52:15.181Z,20.25
2023-02-15T15:53:15.273Z,20.25
2023-02-15T15:54:16.363Z,20.25
2023-02-15T15:55:16.213Z,20.27
2023-02-15T15:56:16.341Z,20.24
2023-02-15T15:57:17.453Z,20.25
2023-02-15T15:58:17.443Z,20.24
2023-02-15T15:59:16.006Z,20.24
2023-02-15T16:00:16.005Z,20.25
2023-02-15T16:01:16.973Z,20.24
2023-02-15T16:12:37.115Z,19.97
2023-02-15T16:13:37.287Z,19.95
2023-02-15T16:14:38.297Z,19.93
2023-02-15T16:15:39.299Z,19.94
2023-02-15T16:16:38.053Z,19.94
2023-02-15T16:17:38.038Z,19.94
2023-02-15T16:18:37.885Z,19.97
2023-02-15T16:19:38.849Z,19.97
2023-02-15T16:20:39.593Z,19.98
2023-02-15T16:21:38.389Z,20.00
2023-02-15T16:22:39.267Z,20.00
2023-02-15T16:23:38.586Z,20.02
2023-02-15T16:24:39.587Z,20.02
2023-02-15T16:25:39.656Z,20.02
2023-02-15T16:26:40.675Z,20.05
2023-02-15T16:27:40.470Z,20.05
2023-02-15T16:28:39.133Z,20.06
2023-02-15T16:29:40.750Z,20.06
2023-02-15T16:30:40.820Z,20.06
2023-02-15T16:31:39.635Z,20.06
2023-02-15T16:32:39.865Z,20.06
2023-02-15T16:33:39.776Z,20.05
2023-02-15T16:34:40.916Z,20.06
2023-02-15T16:35:40.325Z,20.06
2023-02-15T16:36:41.098Z,20.05
2023-02-15T16:37:40.427Z,20.06
2023-02-15T16:38:40.437Z,20.06
2023-02-15T16:39:41.090Z,20.06
2023-02-15T16:40:40.984Z,20.05
2023-02-15T16:41:42.164Z,20.06
2023-02-15T16:42:41.953Z,20.05
2023-02-15T16:43:41.165Z,20.03
2023-02-15T16:44:42.244Z,20.03
2023-02-15T16:45:41.801Z,20.05
2023-02-15T16:46:43.320Z,20.05
2023-02-15T16:47:41.726Z,20.03
2023-02-15T16:48:42.455Z,20.05
2023-02-15T16:49:43.483Z,20.05
2023-02-15T16:50:43.392Z,20.02
2023-02-15T16:51:43.534Z,20.02
2023-02-15T16:52:42.892Z,20.02
2023-02-15T16:53:43.543Z,20.02
2023-02-15T16:54:42.906Z,20.00
2023-02-15T16:55:44.549Z,20.00
2023-02-15T16:56:47.279Z,20.02
2023-02-15T16:57:44.269Z,19.98
2023-02-15T16:58:43.527Z,19.97
2023-02-15T16:59:44.708Z,19.98
2023-02-15T17:00:45.115Z,19.97
2023-02-15T17:01:43.757Z,19.98
2023-02-15T17:02:56.159Z,19.97
2023-02-15T17:03:45.471Z,19.95
2023-02-15T17:04:45.199Z,19.97
2023-02-15T17:05:45.251Z,19.97
2023-02-15T17:06:45.393Z,19.94
2023-02-15T17:07:45.540Z,19.95
2023-02-15T17:08:45.037Z,19.94
2023-02-15T17:09:45.228Z,19.93
2023-02-15T17:10:45.259Z,19.93
2023-02-15T17:11:45.248Z,19.93
2023-02-15T17:12:46.285Z,19.93
2023-02-15T17:13:45.861Z,19.94
2023-02-15T17:14:46.565Z,19.94
2023-02-15T17:15:46.280Z,19.93
2023-02-15T17:16:46.106Z,19.91
2023-02-15T17:17:47.346Z,19.91
2023-02-15T17:18:46.424Z,19.90
2023-02-15T17:19:47.249Z,19.91
2023-02-15T17:20:46.505Z,19.91
2023-02-15T17:21:48.525Z,19.90
2023-02-15T17:22:48.497Z,19.88
2023-02-15T17:23:48.541Z,19.90
2023-02-15T17:24:47.269Z,19.91
2023-02-15T17:25:48.648Z,19.88
2023-02-15T17:26:47.238Z,19.87
2023-02-15T17:27:49.307Z,19.90
2023-02-15T17:28:48.636Z,19.88
2023-02-15T17:29:48.600Z,19.90
2023-02-15T17:30:48.766Z,19.87